This demonstration page uses our WeatherBlox Daily Observations layout. Learn more.

36.17497, -115.13722

Hourly Observations for May 21, 2015

Temp ( °F °C ) Dew Point ( °F °C ) Humidity (%) Winds ( mph kmh ) Pressure ( in mb ) Visibility ( mi km ) Precip ( " mm )
12:53 am 00:53 Clear 69 20.6 24 -4.4 18 18 SE 3 6 29.81 1009 10 16.0934 0 0
1:53 am 01:53 Clear 66 18.9 24 -4.4 20 20 SSE 3 6 29.8 1009 10 16.0934 0 0
2:53 am 02:53 Clear 68 20 24 -4.4 19 19 E 6 9 29.8 1009 10 16.0934 0 0
3:53 am 03:53 Clear 66 18.9 25 -3.9 21 21 Calm 29.81 1009 10 16.0934 0 0
4:53 am 04:53 Clear 63 17.2 25 -3.9 24 24 SE 5 7 29.8 1009 10 16.0934 0 0
5:53 am 05:53 Sunny 63 17.2 27 -2.8 26 26 NW 3 6 29.81 1010 10 16.0934 0 0
6:53 am 06:53 Sunny 64 17.8 29 -1.7 27 27 Calm 29.82 1010 10 16.0934 0 0
7:53 am 07:53 Sunny 69 20.6 25 -3.9 19 19 Calm 29.83 1010 10 16.0934 0 0
8:53 am 08:53 Sunny 73 22.8 27 -2.8 18 18 Calm 29.81 1010 10 16.0934 0 0
9:53 am 09:53 Sunny 75 23.9 26 -3.3 16 16 ESE 8 13 29.8 1009 10 16.0934 0 0
10:53 am 10:53 Sunny 76 24.4 26 -3.3 16 16 SE 6 9 29.8 1009 10 16.0934 0 0
11:53 am 11:53 Sunny 80 26.7 26 -3.3 14 14 SE 18 30 29.8 1009 10 16.0934 0 0
12:53 pm 12:53 Sunny 79 26.1 21 -6.1 11 11 SE 14 22 29.79 1009 10 16.0934 0 0
1:53 pm 13:53 Sunny 80 26.7 25 -3.9 13 13 SE 16 26 29.78 1009 10 16.0934 0 0
2:53 pm 14:53 Sunny 80 26.7 25 -3.9 13 13 S 13 20 29.76 1008 10 16.0934 0 0
3:53 pm 15:53 Mostly Cloudy 78 25.6 24 -4.4 13 13 S 17 28 29.75 1007 10 16.0934 0 0
4:53 pm 16:53 Cloudy with Light Rain 72 22.2 38 3.3 29 29 W 28 44 29.75 1008 10 16.0934 0 0.0254
5:53 pm 17:53 Partly Cloudy 75 23.9 31 -0.6 20 20 W 16 26 29.75 1008 10 16.0934 0 0.0254
6:53 pm 18:53 Sunny 74 23.3 33 0.6 22 22 WNW 8 13 29.75 1007 10 16.0934 0 0
7:53 pm 19:53 Clear 74 23.3 32 0 21 21 W 7 11 29.74 1007 10 16.0934 0 0
8:53 pm 20:53 Mostly Clear 74 23.3 31 -0.6 20 20 W 3 6 29.74 1007 10 16.0934 0 0
9:53 pm 21:53 Clear 72 22.2 31 -0.6 22 22 S 6 9 29.75 1008 10 16.0934 0 0
10:53 pm 22:53 Clear 68 20 32 0 26 26 SE 3 6 29.76 1008 10 16.0934 0 0
11:53 pm 23:53 Clear 68 20 34 1.1 28 28 NW 6 9 29.76 1008 10 16.0934 0 0

Powered by AerisWeather